Time;durP1;ratioP1;P1;durP2;ratioP2;P2;SDS_P1;SDS_P2;PMS_P1;PMS_P2;Temp;Humidity;BMP_temperature;BMP_pressure;BME280_temperature;BME280_humidity;BME280_pressure;Samples;Min_cycle;Max_cycle;Signal;HPM_P1;HPM_P2
2023/04/05 00:02:17;;;;;;;5.50;3.60;;;6.40;50.40;;;;;;5031441;28;20041;-49
2023/04/05 00:04:49;;;;;;;5.25;3.97;;;6.30;51.00;;;;;;5029268;28;20038;-50
2023/04/05 00:07:17;;;;;;;3.55;3.25;;;6.30;50.40;;;;;;5027050;28;20156;-48
2023/04/05 00:09:47;;;;;;;5.82;3.88;;;6.30;50.50;;;;;;5031069;28;20042;-52
2023/04/05 00:12:16;;;;;;;6.00;3.60;;;6.20;50.60;;;;;;5028157;28;20080;-51
2023/04/05 00:14:43;;;;;;;5.90;4.45;;;6.20;50.60;;;;;;5029251;28;20100;-49
2023/04/05 00:17:10;;;;;;;5.72;3.97;;;6.20;50.80;;;;;;5012970;28;20045;-49
2023/04/05 00:19:41;;;;;;;4.23;3.63;;;6.10;50.90;;;;;;5030712;28;20045;-52
2023/04/05 00:22:09;;;;;;;6.57;4.07;;;6.10;50.90;;;;;;5027778;28;20056;-48
2023/04/05 00:24:42;;;;;;;4.47;3.70;;;6.10;50.90;;;;;;5029183;28;20124;-48
2023/04/05 00:27:09;;;;;;;4.88;3.72;;;6.10;51.00;;;;;;5030675;28;20076;-51
2023/04/05 00:29:36;;;;;;;3.72;3.40;;;6.00;51.00;;;;;;5030441;28;20045;-49
2023/04/05 00:32:10;;;;;;;6.38;4.05;;;6.00;51.00;;;;;;5010055;28;20046;-48
2023/04/05 00:34:37;;;;;;;4.70;3.22;;;6.00;51.50;;;;;;5039550;22;20057;-45
2023/04/05 00:37:10;;;;;;;5.85;4.50;;;5.90;51.20;;;;;;5029781;28;20035;-47
2023/04/05 00:39:39;;;;;;;6.45;4.50;;;5.90;51.40;;;;;;5023308;28;20053;-43
2023/04/05 00:42:08;;;;;;;5.68;3.80;;;5.90;51.30;;;;;;5028177;28;20084;-45
2023/04/05 00:44:35;;;;;;;4.60;4.10;;;5.90;51.30;;;;;;5024427;28;20041;-45
2023/04/05 00:47:05;;;;;;;5.22;3.83;;;5.90;51.40;;;;;;4984083;28;20717;-44
2023/04/05 00:49:34;;;;;;;4.65;3.95;;;5.90;51.40;;;;;;4991991;28;20045;-47
2023/04/05 00:52:04;;;;;;;6.18;3.88;;;5.80;51.40;;;;;;5003488;28;20034;-45
2023/04/05 00:54:35;;;;;;;5.50;4.13;;;5.80;51.50;;;;;;5007266;28;20038;-46
2023/04/05 00:57:04;;;;;;;7.22;3.83;;;5.80;51.50;;;;;;5018045;28;20524;-44
2023/04/05 00:59:35;;;;;;;7.38;4.13;;;5.70;51.50;;;;;;5028285;28;20033;-45
2023/04/05 01:02:19;;;;;;;5.35;3.83;;;5.70;51.50;;;;;;5017989;28;20037;-45
2023/04/05 01:05:00;;;;;;;4.75;4.25;;;5.70;51.90;;;;;;5005421;28;20045;-47
2023/04/05 01:07:49;;;;;;;4.10;3.67;;;5.70;51.80;;;;;;4995498;28;20058;-44
2023/04/05 01:10:38;;;;;;;3.72;3.33;;;5.70;52.30;;;;;;5010468;28;20042;-46
2023/04/05 01:13:06;;;;;;;5.00;3.60;;;5.60;52.10;;;;;;5000102;28;20046;-47
2023/04/05 01:15:35;;;;;;;5.38;3.28;;;5.60;51.50;;;;;;5003413;28;20096;-48
2023/04/05 01:18:09;;;;;;;5.47;3.50;;;5.60;51.60;;;;;;4992940;28;20061;-46
2023/04/05 01:20:53;;;;;;;4.63;3.65;;;5.50;51.80;;;;;;5009418;28;20057;-44
2023/04/05 01:23:37;;;;;;;7.43;3.92;;;5.50;52.40;;;;;;5007509;28;20069;-45
2023/04/05 01:26:39;;;;;;;4.40;3.60;;;5.50;52.70;;;;;;5009313;28;20125;-44
2023/04/05 01:29:37;;;;;;;6.05;3.47;;;5.40;51.70;;;;;;4968986;28;20038;-45
2023/04/05 01:32:33;;;;;;;4.40;2.85;;;5.40;52.90;;;;;;5004828;28;20042;-48
2023/04/05 01:35:05;;;;;;;5.43;3.45;;;5.40;52.90;;;;;;5004542;28;20501;-43
2023/04/05 01:37:39;;;;;;;5.13;3.97;;;5.30;51.70;;;;;;5010118;28;20064;-45
2023/04/05 01:40:09;;;;;;;4.82;3.72;;;5.30;51.90;;;;;;5012995;28;20510;-46
2023/04/05 01:42:41;;;;;;;4.97;3.78;;;5.30;52.00;;;;;;5007005;28;20053;-45
2023/04/05 01:45:15;;;;;;;3.47;3.13;;;5.30;52.10;;;;;;5008695;28;20046;-44
2023/04/05 01:47:43;;;;;;;5.57;3.17;;;5.30;52.30;;;;;;4992724;28;20060;-45
2023/04/05 01:50:14;;;;;;;6.93;4.32;;;5.30;52.20;;;;;;5008977;28;20053;-45
2023/04/05 01:52:44;;;;;;;6.80;4.03;;;5.30;52.30;;;;;;5001990;28;20046;-44
2023/04/05 01:55:10;;;;;;;4.63;3.28;;;5.20;52.20;;;;;;4991257;28;20140;-45
2023/04/05 01:57:37;;;;;;;5.50;3.63;;;5.20;52.20;;;;;;4992063;28;20075;-46
2023/04/05 02:00:12;;;;;;;5.72;4.22;;;5.20;52.20;;;;;;4988795;28;20048;-44
2023/04/05 02:02:39;;;;;;;4.20;3.35;;;5.10;52.50;;;;;;5009830;28;20050;-48
2023/04/05 02:05:07;;;;;;;6.47;3.88;;;5.10;52.20;;;;;;4988372;28;20488;-45
2023/04/05 02:07:35;;;;;;;6.30;3.45;;;5.10;52.20;;;;;;4996244;28;20046;-45
2023/04/05 02:10:07;;;;;;;5.00;3.38;;;5.10;52.30;;;;;;5000829;28;20121;-44
2023/04/05 02:12:43;;;;;;;4.78;3.58;;;5.00;52.50;;;;;;5012097;28;20064;-48
2023/04/05 02:15:11;;;;;;;5.18;3.28;;;5.00;52.90;;;;;;5030715;28;20137;-44
2023/04/05 02:17:44;;;;;;;3.30;3.00;;;5.00;52.40;;;;;;5032944;28;20045;-45
2023/04/05 02:20:13;;;;;;;4.40;3.47;;;5.00;52.60;;;;;;5016416;28;20118;-45
2023/04/05 02:22:43;;;;;;;3.85;3.40;;;5.00;52.60;;;;;;5006849;28;20057;-46
2023/04/05 02:25:12;;;;;;;4.82;4.20;;;5.00;52.60;;;;;;5012462;28;20433;-45
2023/04/05 02:27:40;;;;;;;4.75;3.90;;;4.90;52.80;;;;;;5013348;28;20125;-47
2023/04/05 02:30:12;;;;;;;5.43;3.88;;;4.90;52.60;;;;;;5002672;28;20084;-45
2023/04/05 02:32:47;;;;;;;5.57;3.70;;;4.90;52.90;;;;;;5018178;28;20040;-46
2023/04/05 02:35:16;;;;;;;4.38;3.75;;;4.80;52.70;;;;;;5008203;28;20498;-44
2023/04/05 02:37:45;;;;;;;4.78;3.95;;;4.80;52.60;;;;;;5013249;28;20509;-48
2023/04/05 02:40:15;;;;;;;6.57;4.10;;;4.80;52.80;;;;;;5016451;28;20514;-47
2023/04/05 02:42:44;;;;;;;5.40;4.18;;;4.80;52.80;;;;;;5007031;28;20042;-45
2023/04/05 02:45:11;;;;;;;5.55;4.18;;;4.80;52.90;;;;;;5007176;28;20045;-47
2023/04/05 02:47:42;;;;;;;5.03;3.78;;;4.70;52.80;;;;;;4995256;28;20464;-47
2023/04/05 02:50:12;;;;;;;5.25;4.50;;;4.80;53.10;;;;;;4990736;28;20117;-45
2023/04/05 02:52:46;;;;;;;4.70;4.22;;;4.70;52.90;;;;;;5010799;28;20073;-47
2023/04/05 02:55:22;;;;;;;5.57;4.28;;;4.70;52.90;;;;;;4994411;28;20038;-45
2023/04/05 02:57:59;;;;;;;4.10;3.10;;;4.70;52.90;;;;;;5006245;28;20062;-47
2023/04/05 03:00:37;;;;;;;5.95;5.05;;;4.70;52.90;;;;;;4994292;28;20141;-47
2023/04/05 03:03:07;;;;;;;5.07;4.00;;;4.70;52.70;;;;;;4992567;28;20745;-45
2023/04/05 03:05:46;;;;;;;6.45;4.22;;;4.70;52.90;;;;;;5005211;28;20609;-46
2023/04/05 03:08:22;;;;;;;5.38;4.85;;;4.60;53.00;;;;;;4995732;28;20046;-49
2023/04/05 03:10:59;;;;;;;6.18;4.40;;;4.60;53.10;;;;;;4994491;28;20053;-47
2023/04/05 03:13:36;;;;;;;6.28;4.97;;;4.60;52.90;;;;;;4988776;28;20505;-48
2023/04/05 03:16:12;;;;;;;5.45;4.32;;;4.60;53.00;;;;;;4993990;28;20046;-45
2023/04/05 03:18:43;;;;;;;4.50;4.10;;;4.50;53.00;;;;;;5012447;28;20041;-47
2023/04/05 03:21:12;;;;;;;5.80;4.15;;;4.50;53.00;;;;;;4988435;28;20038;-47
2023/04/05 03:23:55;;;;;;;8.32;4.80;;;4.50;52.90;;;;;;5009435;28;20049;-47
2023/04/05 03:26:28;;;;;;;6.18;5.05;;;4.50;53.00;;;;;;4994020;28;20069;-45
2023/04/05 03:28:56;;;;;;;4.93;4.38;;;4.50;52.90;;;;;;4995003;28;20046;-44
2023/04/05 03:31:32;;;;;;;6.60;4.18;;;4.40;53.00;;;;;;4985676;28;20127;-47
2023/04/05 03:34:08;;;;;;;6.18;4.38;;;4.40;53.00;;;;;;4989718;28;20644;-44
2023/04/05 03:36:46;;;;;;;5.78;4.72;;;4.40;53.00;;;;;;5011508;28;20545;-46
2023/04/05 03:39:28;;;;;;;6.72;5.15;;;4.40;53.10;;;;;;5006010;28;20506;-47
2023/04/05 03:41:57;;;;;;;5.68;4.47;;;4.40;53.10;;;;;;5006936;28;20045;-45
2023/04/05 03:44:29;;;;;;;7.70;4.45;;;4.30;53.10;;;;;;5011196;28;20065;-45
2023/04/05 03:47:06;;;;;;;8.40;4.85;;;4.30;53.10;;;;;;5014091;28;20111;-46
2023/04/05 03:49:33;;;;;;;7.03;4.32;;;4.30;53.30;;;;;;5013796;28;20532;-46
2023/04/05 03:52:00;;;;;;;6.43;4.93;;;4.30;53.10;;;;;;4993240;28;20084;-45
2023/04/05 03:54:27;;;;;;;7.95;4.47;;;4.30;53.20;;;;;;5010756;28;20093;-45
2023/04/05 03:57:08;;;;;;;5.93;4.78;;;4.30;53.30;;;;;;4993783;28;20064;-46
2023/04/05 03:59:35;;;;;;;7.55;4.45;;;4.20;53.40;;;;;;4995307;28;20499;-46
2023/04/05 04:02:04;;;;;;;5.93;4.03;;;4.20;53.30;;;;;;5002097;28;20052;-45
2023/04/05 04:04:31;;;;;;;5.53;3.92;;;4.20;53.40;;;;;;4984399;28;20093;-46
2023/04/05 04:06:58;;;;;;;6.88;4.65;;;4.20;53.40;;;;;;5009211;28;20406;-47
2023/04/05 04:09:28;;;;;;;5.55;4.00;;;4.20;53.40;;;;;;4994283;28;20038;-46
2023/04/05 04:11:59;;;;;;;6.10;3.83;;;4.20;53.40;;;;;;5009085;28;20046;-45
2023/04/05 04:14:31;;;;;;;7.43;5.95;;;4.20;53.40;;;;;;5005790;28;20503;-46
2023/04/05 04:17:29;;;;;;;5.60;4.15;;;4.10;53.40;;;;;;5004370;28;20398;-45
2023/04/05 04:20:25;;;;;;;5.07;3.90;;;4.10;53.90;;;;;;5007277;28;20052;-47
2023/04/05 04:23:15;;;;;;;6.03;4.20;;;4.10;53.40;;;;;;4964219;28;20422;-46
2023/04/05 04:26:27;;;;;;;7.40;4.15;;;4.00;53.40;;;;;;4991191;28;20418;-45
2023/04/05 04:29:15;;;;;;;6.47;4.37;;;4.00;53.20;;;;;;4992610;28;20088;-46
2023/04/05 04:32:15;;;;;;;7.75;4.72;;;4.00;53.20;;;;;;5008384;28;20135;-46
2023/04/05 04:35:03;;;;;;;6.25;4.60;;;4.00;53.20;;;;;;4988680;28;20461;-45
2023/04/05 04:37:57;;;;;;;6.10;4.85;;;3.90;53.20;;;;;;5009190;28;20046;-47
2023/04/05 04:40:49;;;;;;;5.35;4.18;;;3.90;53.30;;;;;;5006681;28;20414;-46
2023/04/05 04:43:25;;;;;;;6.63;4.32;;;3.90;53.30;;;;;;4987430;28;20076;-45
2023/04/05 04:46:13;;;;;;;4.63;4.18;;;3.90;53.30;;;;;;5009033;28;20048;-46
2023/04/05 04:48:58;;;;;;;6.82;4.20;;;3.90;53.40;;;;;;4991966;28;20046;-45
2023/04/05 04:51:31;;;;;;;5.60;4.40;;;3.80;53.40;;;;;;5001814;28;20546;-44
2023/04/05 04:53:58;;;;;;;6.90;5.22;;;3.80;53.50;;;;;;5008928;28;20528;-45
2023/04/05 04:56:25;;;;;;;8.02;4.97;;;3.80;53.60;;;;;;5009227;28;20080;-47
2023/04/05 04:58:55;;;;;;;7.68;4.60;;;3.80;53.70;;;;;;4993012;28;20044;-45
2023/04/05 05:01:23;;;;;;;5.78;4.43;;;3.80;53.80;;;;;;5008558;28;20041;-46
2023/04/05 05:03:50;;;;;;;8.75;5.40;;;3.70;53.80;;;;;;5004709;28;20050;-46
2023/04/05 05:06:21;;;;;;;7.55;5.35;;;3.70;53.80;;;;;;4993388;28;20037;-45
2023/04/05 05:08:48;;;;;;;7.13;4.88;;;3.70;53.80;;;;;;5005750;28;20052;-46
2023/04/05 05:11:14;;;;;;;6.45;4.55;;;3.70;53.80;;;;;;5012358;28;20056;-44
2023/04/05 05:13:41;;;;;;;8.57;4.88;;;3.70;53.90;;;;;;5010332;28;20046;-43
2023/04/05 05:16:12;;;;;;;7.15;4.75;;;3.70;53.90;;;;;;5005603;28;20038;-46
2023/04/05 05:18:40;;;;;;;8.45;5.53;;;3.70;54.00;;;;;;5018554;28;20072;-46
2023/04/05 05:21:07;;;;;;;5.50;4.90;;;3.70;54.10;;;;;;5012084;28;20037;-45
2023/04/05 05:23:33;;;;;;;6.43;5.25;;;3.60;54.00;;;;;;5014890;28;20447;-45
2023/04/05 05:26:04;;;;;;;6.30;4.72;;;3.70;54.10;;;;;;4971656;28;20138;-45
2023/04/05 05:28:30;;;;;;;6.28;4.47;;;3.60;54.20;;;;;;5009380;28;20057;-46
2023/04/05 05:30:59;;;;;;;6.60;4.60;;;3.60;54.20;;;;;;5011549;28;20113;-46
2023/04/05 05:33:26;;;;;;;8.40;5.38;;;3.60;54.30;;;;;;5011595;28;20065;-45
2023/04/05 05:35:53;;;;;;;6.65;4.95;;;3.70;54.40;;;;;;5004468;28;20045;-49
2023/04/05 05:38:19;;;;;;;7.95;5.40;;;3.70;54.40;;;;;;5009440;28;20041;-47
2023/04/05 05:40:46;;;;;;;7.57;5.10;;;3.70;54.60;;;;;;5004237;28;20057;-46
2023/04/05 05:43:12;;;;;;;7.30;5.30;;;3.70;54.60;;;;;;5007325;28;20498;-46
2023/04/05 05:45:39;;;;;;;11.45;5.70;;;3.70;54.60;;;;;;5013712;28;20112;-46
2023/04/05 05:48:06;;;;;;;7.78;4.93;;;3.70;54.60;;;;;;5013775;28;20056;-48
2023/04/05 05:50:32;;;;;;;7.13;4.63;;;3.70;54.70;;;;;;4983320;28;20142;-46
2023/04/05 05:52:59;;;;;;;6.45;4.85;;;3.70;54.70;;;;;;5002746;28;20050;-44
2023/04/05 05:55:27;;;;;;;6.28;5.13;;;3.80;54.90;;;;;;5006679;28;20481;-46
2023/04/05 05:57:54;;;;;;;6.40;5.15;;;3.80;54.90;;;;;;5010430;28;20052;-45
2023/04/05 06:00:24;;;;;;;8.77;6.00;;;3.80;55.00;;;;;;5004082;28;20429;-46
2023/04/05 06:02:51;;;;;;;5.90;4.93;;;3.80;55.10;;;;;;5003124;28;20454;-46
2023/04/05 06:05:18;;;;;;;6.97;5.75;;;3.80;55.10;;;;;;5004372;28;20053;-45
2023/04/05 06:07:45;;;;;;;9.75;5.13;;;3.80;55.20;;;;;;4996639;28;20056;-46
2023/04/05 06:10:12;;;;;;;8.52;5.35;;;3.90;55.30;;;;;;5008121;28;20034;-44
2023/04/05 06:12:38;;;;;;;7.55;6.05;;;3.90;55.40;;;;;;5006124;28;20049;-45
2023/04/05 06:15:06;;;;;;;9.73;6.50;;;3.90;55.40;;;;;;5004577;28;20054;-48
2023/04/05 06:17:34;;;;;;;7.78;5.80;;;3.90;55.50;;;;;;5004475;28;20033;-48
2023/04/05 06:20:01;;;;;;;8.77;6.63;;;4.00;55.60;;;;;;5024143;28;20049;-46
2023/04/05 06:22:28;;;;;;;8.52;6.70;;;4.00;55.50;;;;;;5006457;28;20121;-46
2023/04/05 06:24:55;;;;;;;9.63;7.03;;;4.00;55.60;;;;;;5010299;28;20053;-46
2023/04/05 06:27:21;;;;;;;10.40;7.55;;;4.10;55.70;;;;;;5006376;28;20042;-46
2023/04/05 06:29:48;;;;;;;11.18;8.50;;;4.10;55.80;;;;;;5019006;28;20121;-47
2023/04/05 06:32:15;;;;;;;11.82;8.88;;;4.20;55.90;;;;;;5010173;28;20053;-45
2023/04/05 06:34:41;;;;;;;10.60;8.93;;;4.20;56.00;;;;;;5006821;28;20133;-46
2023/04/05 06:37:08;;;;;;;10.07;8.20;;;4.20;55.90;;;;;;5008654;28;20117;-48
2023/04/05 06:39:35;;;;;;;10.60;8.25;;;4.30;56.00;;;;;;5009146;28;20042;-47
2023/04/05 06:42:02;;;;;;;12.10;7.97;;;4.30;56.00;;;;;;5004583;28;20053;-48
2023/04/05 06:44:37;;;;;;;10.35;8.00;;;4.30;56.00;;;;;;4994701;28;20041;-45
2023/04/05 06:47:04;;;;;;;11.85;8.70;;;4.40;56.00;;;;;;5001335;28;20042;-46
2023/04/05 06:49:33;;;;;;;13.95;8.63;;;4.40;56.70;;;;;;4997002;28;20046;-47
2023/04/05 06:52:01;;;;;;;11.05;7.68;;;4.50;56.30;;;;;;5009345;28;20041;-45
2023/04/05 06:54:28;;;;;;;10.15;8.63;;;4.50;56.20;;;;;;5012600;28;20464;-47
2023/04/05 06:56:55;;;;;;;13.25;8.45;;;4.60;56.20;;;;;;5013046;28;20509;-47
2023/04/05 06:59:24;;;;;;;11.95;7.80;;;4.60;56.20;;;;;;5012696;28;20482;-44
2023/04/05 07:01:50;;;;;;;11.05;7.80;;;4.60;56.40;;;;;;5008199;28;20054;-45
2023/04/05 07:04:17;;;;;;;12.52;8.20;;;4.70;56.40;;;;;;5004472;28;20034;-47
2023/04/05 07:06:44;;;;;;;11.40;7.95;;;4.70;56.40;;;;;;5013137;28;20112;-50
2023/04/05 07:09:10;;;;;;;9.07;7.47;;;4.70;56.40;;;;;;5012601;28;20366;-46
2023/04/05 07:11:38;;;;;;;11.93;7.32;;;4.80;56.50;;;;;;5009965;28;20740;-49
2023/04/05 07:14:05;;;;;;;12.20;7.50;;;4.80;56.50;;;;;;5012178;28;20050;-49
2023/04/05 07:16:34;;;;;;;12.73;7.65;;;4.90;56.60;;;;;;5012851;28;20096;-48
2023/04/05 07:19:00;;;;;;;11.30;8.73;;;4.90;56.60;;;;;;5011336;28;20061;-47
2023/04/05 07:21:29;;;;;;;13.85;8.55;;;5.00;56.70;;;;;;5008016;28;20053;-46
2023/04/05 07:23:59;;;;;;;11.30;8.43;;;5.00;56.70;;;;;;5011473;28;20121;-47
2023/04/05 07:26:26;;;;;;;11.10;7.70;;;5.10;56.60;;;;;;5012815;28;20034;-47
2023/04/05 07:28:55;;;;;;;14.10;8.52;;;5.10;56.60;;;;;;5012290;28;20048;-47
2023/04/05 07:31:22;;;;;;;11.07;8.18;;;5.20;56.70;;;;;;5008357;28;20045;-47
2023/04/05 07:33:48;;;;;;;11.40;8.18;;;5.30;56.70;;;;;;5005516;28;20050;-48
2023/04/05 07:36:15;;;;;;;12.07;8.05;;;5.40;56.60;;;;;;5011587;28;20561;-46
2023/04/05 07:38:42;;;;;;;10.48;7.63;;;5.40;56.50;;;;;;5012069;28;20046;-44
2023/04/05 07:41:10;;;;;;;9.85;7.55;;;5.50;56.30;;;;;;5011847;28;20457;-48
2023/04/05 07:43:37;;;;;;;10.50;7.93;;;5.60;56.30;;;;;;5011688;28;20063;-48
2023/04/05 07:46:06;;;;;;;12.40;8.73;;;5.70;56.40;;;;;;5022406;28;20073;-46
2023/04/05 07:48:33;;;;;;;11.18;8.70;;;5.70;56.30;;;;;;5017225;28;20049;-47
2023/04/05 07:51:07;;;;;;;12.90;9.10;;;5.80;56.30;;;;;;4993848;28;20100;-47
2023/04/05 07:53:34;;;;;;;11.35;8.15;;;5.90;56.60;;;;;;5003554;28;20468;-47
2023/04/05 07:56:09;;;;;;;12.27;8.48;;;5.90;56.00;;;;;;5012228;28;20096;-45
2023/04/05 07:58:40;;;;;;;12.32;8.80;;;6.10;56.20;;;;;;5003471;28;20084;-47
2023/04/05 08:01:09;;;;;;;12.15;8.85;;;6.10;55.90;;;;;;5037484;22;20132;-50
2023/04/05 08:03:38;;;;;;;11.48;8.60;;;6.20;55.90;;;;;;5023557;28;20104;-48
2023/04/05 08:06:13;;;;;;;14.00;9.13;;;6.30;55.80;;;;;;5030291;28;20037;-50
2023/04/05 08:08:40;;;;;;;13.25;9.25;;;6.40;56.00;;;;;;5030871;28;20041;-50
2023/04/05 08:11:07;;;;;;;12.43;9.13;;;6.40;55.40;;;;;;5031206;28;20120;-45
2023/04/05 08:13:35;;;;;;;12.32;9.10;;;6.50;55.40;;;;;;5024547;28;20048;-50
2023/04/05 08:16:02;;;;;;;12.70;9.73;;;6.60;55.40;;;;;;5028889;28;20041;-46
2023/04/05 08:18:29;;;;;;;11.73;9.15;;;6.60;55.30;;;;;;5021780;28;20128;-49
2023/04/05 08:20:56;;;;;;;11.15;8.52;;;6.70;55.10;;;;;;5027951;28;20064;-47
2023/04/05 08:23:23;;;;;;;13.85;9.07;;;6.70;54.90;;;;;;5030383;28;20042;-47
2023/04/05 08:25:53;;;;;;;10.40;8.50;;;6.80;55.00;;;;;;5029280;28;20559;-47
2023/04/05 08:28:20;;;;;;;17.30;10.00;;;6.90;55.00;;;;;;5026711;28;20044;-46
2023/04/05 08:30:47;;;;;;;12.95;8.75;;;6.90;54.80;;;;;;5013072;28;20041;-49
2023/04/05 08:33:13;;;;;;;12.68;8.70;;;7.00;54.80;;;;;;5027179;28;20065;-47
2023/04/05 08:35:41;;;;;;;12.25;9.15;;;7.10;55.00;;;;;;5026201;28;20045;-46
2023/04/05 08:38:10;;;;;;;14.02;9.98;;;7.10;54.80;;;;;;5030717;28;20408;-46
2023/04/05 08:40:45;;;;;;;14.45;10.30;;;7.20;55.00;;;;;;5030279;28;20037;-47
2023/04/05 08:43:32;;;;;;;10.85;8.80;;;7.30;55.30;;;;;;5026603;28;20037;-50
2023/04/05 08:46:00;;;;;;;12.90;8.88;;;7.40;54.90;;;;;;5032748;28;20038;-47
2023/04/05 08:48:31;;;;;;;11.50;8.40;;;7.50;54.40;;;;;;5031829;28;20507;-47
2023/04/05 08:50:57;;;;;;;11.88;8.50;;;7.60;54.20;;;;;;5024895;28;20053;-48
2023/04/05 08:53:24;;;;;;;12.77;8.68;;;7.60;54.10;;;;;;5033801;28;20048;-47
2023/04/05 08:55:54;;;;;;;11.85;9.32;;;7.70;54.20;;;;;;5030894;28;20107;-47
2023/04/05 08:58:22;;;;;;;10.23;8.95;;;7.70;54.00;;;;;;5020288;28;20041;-48
2023/04/05 09:00:54;;;;;;;12.57;8.50;;;7.90;54.00;;;;;;5030025;28;20068;-50
2023/04/05 09:03:22;;;;;;;12.75;8.48;;;7.90;53.70;;;;;;5027315;28;20042;-51
2023/04/05 09:05:51;;;;;;;12.65;8.07;;;8.00;53.20;;;;;;5029120;28;20042;-49
2023/04/05 09:08:20;;;;;;;11.18;7.50;;;8.10;53.30;;;;;;5027682;28;20105;-48
2023/04/05 09:10:50;;;;;;;11.38;8.40;;;8.20;52.60;;;;;;5029530;28;20072;-51
2023/04/05 09:13:17;;;;;;;12.45;8.65;;;8.30;52.70;;;;;;5030039;28;20506;-47
2023/04/05 09:15:45;;;;;;;11.63;9.02;;;8.40;52.90;;;;;;5030143;28;20061;-51
2023/04/05 09:18:12;;;;;;;13.27;8.68;;;8.50;52.50;;;;;;5011891;28;20056;-50
2023/04/05 09:21:05;;;;;;;10.82;8.45;;;8.50;52.10;;;;;;5024244;28;20044;-50
2023/04/05 09:23:35;;;;;;;11.30;8.30;;;8.60;51.60;;;;;;5014722;28;20698;-51
2023/04/05 09:26:20;;;;;;;9.73;7.95;;;8.70;51.80;;;;;;5030102;28;20505;-51
2023/04/05 09:28:53;;;;;;;10.32;7.50;;;8.80;51.00;;;;;;5025459;28;20042;-52
2023/04/05 09:31:33;;;;;;;11.40;7.80;;;8.90;50.80;;;;;;5027670;28;20047;-48
2023/04/05 09:34:05;;;;;;;10.73;7.90;;;8.90;50.60;;;;;;5002367;28;20520;-48
2023/04/05 09:36:33;;;;;;;10.05;7.35;;;9.00;50.50;;;;;;5029247;28;20041;-51
2023/04/05 09:39:05;;;;;;;10.30;7.90;;;9.00;50.50;;;;;;5028824;28;20706;-51
2023/04/05 09:41:32;;;;;;;9.63;7.65;;;9.10;50.30;;;;;;5029008;28;20037;-46
2023/04/05 09:43:59;;;;;;;11.57;7.80;;;9.20;50.50;;;;;;5026674;28;20056;-50
2023/04/05 09:46:33;;;;;;;11.88;8.00;;;9.20;50.50;;;;;;5030651;28;20044;-50
2023/04/05 09:49:02;;;;;;;10.13;8.25;;;9.30;50.10;;;;;;5029578;28;20065;-49
2023/04/05 09:51:34;;;;;;;9.45;8.35;;;9.40;49.90;;;;;;5029218;28;20051;-47
2023/04/05 09:54:08;;;;;;;9.52;7.78;;;9.40;49.20;;;;;;5003252;28;20144;-52
2023/04/05 09:56:39;;;;;;;12.45;8.32;;;9.50;48.50;;;;;;5030343;28;20048;-51
2023/04/05 09:59:11;;;;;;;10.73;8.38;;;9.50;48.90;;;;;;5023945;28;20053;-48
2023/04/05 10:01:42;;;;;;;9.57;7.55;;;9.60;48.20;;;;;;5006563;28;20056;-51
2023/04/05 10:04:09;;;;;;;8.52;7.22;;;9.70;48.20;;;;;;5023742;28;20049;-52
2023/04/05 10:06:38;;;;;;;10.30;7.75;;;9.70;48.10;;;;;;5028136;28;20053;-49
2023/04/05 10:09:06;;;;;;;8.27;7.40;;;9.70;48.10;;;;;;5028148;28;20042;-49
2023/04/05 10:11:35;;;;;;;11.45;7.50;;;9.80;47.80;;;;;;5023514;28;20052;-51
2023/04/05 10:14:04;;;;;;;9.90;7.07;;;9.90;47.20;;;;;;5007495;28;20575;-48
2023/04/05 10:16:49;;;;;;;8.95;7.40;;;9.90;47.10;;;;;;5024469;28;20049;-47
2023/04/05 10:19:44;;;;;;;9.85;7.68;;;10.00;47.00;;;;;;5028373;28;20052;-51
2023/04/05 10:22:16;;;;;;;9.93;7.07;;;10.10;46.90;;;;;;5026603;28;20073;-49
2023/04/05 10:24:50;;;;;;;9.23;7.65;;;10.10;46.60;;;;;;5028426;28;20148;-47
2023/04/05 10:27:28;;;;;;;9.88;7.65;;;10.20;46.50;;;;;;5030731;28;20054;-50
2023/04/05 10:30:07;;;;;;;9.88;8.02;;;10.20;46.50;;;;;;5031719;28;20056;-46
2023/04/05 10:32:34;;;;;;;13.40;7.75;;;10.10;45.50;;;;;;5029744;28;20069;-51
2023/04/05 10:35:15;;;;;;;10.25;7.53;;;10.30;46.30;;;;;;5026683;28;20064;-47
2023/04/05 10:38:06;;;;;;;9.73;7.78;;;10.30;46.10;;;;;;5028465;28;20041;-48
2023/04/05 10:40:34;;;;;;;9.80;7.88;;;10.40;45.80;;;;;;5034074;28;20041;-48
2023/04/05 10:43:07;;;;;;;9.02;7.47;;;10.40;45.90;;;;;;5040900;28;20069;-50
2023/04/05 10:45:37;;;;;;;10.32;8.20;;;10.50;45.80;;;;;;5039216;28;20565;-49
2023/04/05 10:48:24;;;;;;;8.90;7.82;;;10.50;45.70;;;;;;5038366;28;20100;-46
2023/04/05 10:50:51;;;;;;;10.52;7.80;;;10.60;44.90;;;;;;5028797;28;20041;-49
2023/04/05 10:53:20;;;;;;;11.00;8.32;;;10.70;45.90;;;;;;5033104;28;20045;-48
2023/04/05 10:55:49;;;;;;;11.70;8.60;;;10.70;45.80;;;;;;5032413;28;20053;-48
2023/04/05 10:58:17;;;;;;;9.70;7.68;;;10.80;45.30;;;;;;5031849;28;20065;-51
2023/04/05 11:00:46;;;;;;;11.63;8.27;;;10.80;44.90;;;;;;5031555;28;20095;-50
2023/04/05 11:03:50;;;;;;;12.55;8.07;;;10.90;44.80;;;;;;5030436;28;20096;-47
2023/04/05 11:06:30;;;;;;;10.07;7.90;;;10.90;43.70;;;;;;4991973;28;20054;-50
2023/04/05 11:09:14;;;;;;;10.23;8.48;;;11.00;44.10;;;;;;5032469;28;20586;-52
2023/04/05 11:11:47;;;;;;;9.02;7.30;;;11.00;43.20;;;;;;5029240;28;20049;-51
2023/04/05 11:14:18;;;;;;;9.02;7.45;;;11.10;43.30;;;;;;5033335;28;20134;-50
2023/04/05 11:16:53;;;;;;;9.50;7.63;;;11.10;43.50;;;;;;5032318;28;20060;-49
2023/04/05 11:19:20;;;;;;;10.75;8.30;;;11.10;43.00;;;;;;5031441;28;20386;-48
2023/04/05 11:21:47;;;;;;;10.35;8.43;;;11.10;43.50;;;;;;5027914;28;20588;-51
2023/04/05 11:24:17;;;;;;;9.82;7.15;;;11.10;43.60;;;;;;5032902;28;20041;-52
2023/04/05 11:26:47;;;;;;;10.20;7.55;;;11.20;43.30;;;;;;5031996;28;20392;-49
2023/04/05 11:29:16;;;;;;;8.98;7.55;;;11.20;43.00;;;;;;5029329;28;20470;-47
2023/04/05 11:32:05;;;;;;;11.85;7.95;;;11.30;43.70;;;;;;5026687;28;20053;-51
2023/04/05 11:34:35;;;;;;;11.13;8.48;;;11.40;43.00;;;;;;5026605;28;20049;-49
2023/04/05 11:37:02;;;;;;;10.48;7.93;;;11.40;43.10;;;;;;5032010;28;20084;-51
2023/04/05 11:39:28;;;;;;;11.15;8.73;;;11.40;43.10;;;;;;5030513;28;20045;-51
2023/04/05 11:41:58;;;;;;;9.77;8.07;;;11.40;43.10;;;;;;5027929;28;20049;-49
2023/04/05 11:44:25;;;;;;;9.55;7.53;;;11.50;43.60;;;;;;5030815;28;20049;-51
2023/04/05 11:46:52;;;;;;;10.07;7.50;;;11.50;43.00;;;;;;5031565;28;20053;-48
2023/04/05 11:49:23;;;;;;;9.02;7.57;;;11.60;42.50;;;;;;5030979;28;20042;-47
2023/04/05 11:51:51;;;;;;;10.40;8.00;;;11.60;42.20;;;;;;5027444;28;20128;-52
2023/04/05 11:54:29;;;;;;;8.00;7.20;;;11.60;42.60;;;;;;5031840;28;20050;-52
2023/04/05 11:56:56;;;;;;;9.30;7.07;;;11.70;41.00;;;;;;5031637;28;20065;-50
2023/04/05 11:59:33;;;;;;;8.02;7.22;;;11.70;41.30;;;;;;5026834;28;20034;-50
2023/04/05 12:02:02;;;;;;;11.68;7.07;;;11.80;40.90;;;;;;5030517;28;20447;-48
2023/04/05 12:04:29;;;;;;;9.32;7.72;;;11.80;41.20;;;;;;5025998;28;20037;-50
2023/04/05 12:07:16;;;;;;;8.93;6.70;;;11.90;41.20;;;;;;5030766;28;20103;-52
2023/04/05 12:10:15;;;;;;;8.15;7.13;;;11.90;40.30;;;;;;5030951;28;20042;-49
2023/04/05 12:12:43;;;;;;;8.23;7.28;;;12.00;40.50;;;;;;5023064;28;20045;-49
2023/04/05 12:15:14;;;;;;;9.07;5.88;;;12.00;40.40;;;;;;5019269;28;20599;-51
2023/04/05 12:17:53;;;;;;;6.95;6.28;;;12.00;39.90;;;;;;5037865;28;20067;-50
2023/04/05 12:20:23;;;;;;;7.55;6.75;;;12.10;39.80;;;;;;5038473;28;20497;-51
2023/04/05 12:22:52;;;;;;;9.93;6.90;;;12.20;39.90;;;;;;5026829;28;20042;-48
2023/04/05 12:25:22;;;;;;;7.70;6.57;;;12.20;40.10;;;;;;5030030;28;20053;-48
2023/04/05 12:27:49;;;;;;;7.45;6.75;;;12.30;39.40;;;;;;5030766;28;20061;-50
2023/04/05 12:30:21;;;;;;;8.77;7.57;;;12.40;40.40;;;;;;5025692;28;20595;-50
2023/04/05 12:32:51;;;;;;;8.70;6.68;;;12.40;39.70;;;;;;5033140;28;20528;-52
2023/04/05 12:35:37;;;;;;;8.27;6.70;;;12.50;40.00;;;;;;5041123;28;20400;-47
2023/04/05 12:38:05;;;;;;;10.18;6.88;;;12.60;39.80;;;;;;5031352;28;20044;-52
2023/04/05 12:40:33;;;;;;;9.18;7.35;;;12.70;39.80;;;;;;5040711;28;20501;-52
2023/04/05 12:43:05;;;;;;;9.00;7.00;;;12.80;39.70;;;;;;5013018;28;20056;-48
2023/04/05 12:45:41;;;;;;;7.93;6.70;;;12.80;40.00;;;;;;5027588;28;20029;-50
2023/04/05 12:48:14;;;;;;;8.50;6.75;;;13.00;39.80;;;;;;5022090;28;20053;-51
2023/04/05 12:50:43;;;;;;;;;;;13.10;39.40;;;;;;5027156;28;20092;-51
2023/04/05 12:53:19;;;;;;;8.98;6.53;;;13.20;40.90;;;;;;5038833;28;19921;-49
2023/04/05 12:55:51;;;;;;;10.18;6.68;;;13.30;39.30;;;;;;5037837;28;20041;-52
2023/04/05 12:58:19;;;;;;;9.07;6.77;;;13.40;39.10;;;;;;5019349;28;20481;-48
2023/04/05 13:00:46;;;;;;;8.68;6.65;;;13.50;39.10;;;;;;5037990;28;20708;-52
2023/04/05 13:03:19;;;;;;;9.32;7.57;;;13.60;38.90;;;;;;5037806;28;20038;-47
2023/04/05 13:05:47;;;;;;;8.38;6.72;;;13.70;38.40;;;;;;5039327;28;20041;-50
2023/04/05 13:08:17;;;;;;;9.75;7.53;;;13.80;38.90;;;;;;5039887;28;20048;-49
2023/04/05 13:10:48;;;;;;;11.13;7.22;;;13.90;38.60;;;;;;5018228;28;20083;-52
2023/04/05 13:13:16;;;;;;;7.85;6.90;;;14.00;37.40;;;;;;5039394;28;20053;-51
2023/04/05 13:15:44;;;;;;;9.70;7.70;;;14.00;38.00;;;;;;5043054;28;20071;-52